LIRP Airport Information

Runway Information
Runway 04L Length 9160 ft width 141 ft
Elevation 2 ft Threshold 979 ft Heading 37
Runway 22R Length 9160 ft Width 141 ft
Elevation 6 ft Threshold 0 ft Heading 217
Runway 04R Length 9820 ft width 148 ft
Elevation 3 ft Threshold 490 ft Heading 37
Runway 22L Length 9820 ft Width 148 ft
Elevation 6 ft Threshold 843 ft Heading 217
Airport Frequencies
Type APP Name APP Frequency 122.1 MHZ
Type GND Name GND Frequency 121.6 MHZ
Type TWR Name TWR Frequency 119.1 MHZ
Airport Navaids
Type TACAN Name Pisa Frequency 108300 KHZ
Type VOR-DME Name Pisa Frequency 112100 KHZ
Type NDB Name Pisa Frequency 379 KHZ
Airport Weather Information & NOTAM
ADDS - METARS form results

(2132 UTC 17 December 2017)
 
METAR text: LIRP 172115Z 24010KT CAVOK 01/00 Q1023 NOSIG
Conditions at: LIRP (PISA (CIV/IT-AFB, IT) observed 2115 UTC 17 December 2017
Temperature: 1.0°C (34°F)
Dewpoint: 0.0°C (32°F) [RH = 93%]
Pressure (altimeter): 30.21 inches Hg (1023.0 mb)
Winds: from the WSW (240 degrees) at 12 MPH (10 knots; 5.2 m/s)
Visibility: 6 or more miles (10+ km)
Ceiling: ceiling and visibility are OK
Clouds: unknown
Weather: no significant weather observed at this time

METAR text: LIRP 172045Z 07002KT CAVOK 01/00 Q1023 NOSIG
Conditions at: LIRP (PISA (CIV/IT-AFB, IT) observed 2045 UTC 17 December 2017
Temperature: 1.0°C (34°F)
Dewpoint: 0.0°C (32°F) [RH = 93%]
Pressure (altimeter): 30.21 inches Hg (1023.0 mb)
Winds: from the ENE (70 degrees) at 2 MPH (2 knots; 1.0 m/s)
Visibility: 6 or more miles (10+ km)
Ceiling: ceiling and visibility are OK
Clouds: unknown
Weather: no significant weather observed at this time